createdAt,value
2019-05-25T00:00:17.398Z,44.95
2019-05-25T00:01:17.393Z,44.54
2019-05-25T00:02:17.384Z,44.87
2019-05-25T00:03:17.378Z,44.65
2019-05-25T00:04:17.393Z,44.45
2019-05-25T00:05:17.389Z,44.57
2019-05-25T00:06:17.381Z,44.37
2019-05-25T00:07:17.374Z,44.25
2019-05-25T00:08:17.367Z,44.17
2019-05-25T00:09:17.368Z,44.35
2019-05-25T00:10:17.353Z,44.45
2019-05-25T00:11:17.345Z,44.67
2019-05-25T00:12:17.340Z,44.67
2019-05-25T00:13:17.337Z,44.75
2019-05-25T00:14:17.327Z,44.25
2019-05-25T00:15:17.321Z,44.27
2019-05-25T00:16:17.313Z,44.65
2019-05-25T00:17:17.334Z,44.65
2019-05-25T00:18:17.301Z,44.65
2019-05-25T00:19:17.314Z,44.67
2019-05-25T00:20:17.306Z,44.67
2019-05-25T00:21:17.299Z,44.15
2019-05-25T00:22:17.291Z,44.65
2019-05-25T00:23:17.289Z,44.54
2019-05-25T00:24:17.284Z,44.67
2019-05-25T00:25:17.276Z,44.47
2019-05-25T00:26:17.270Z,44.77
2019-05-25T00:27:17.272Z,44.54
2019-05-25T00:28:17.257Z,44.35
2019-05-25T00:29:17.257Z,44.57
2019-05-25T00:30:17.243Z,44.45
2019-05-25T00:31:17.237Z,44.57
2019-05-25T00:32:17.232Z,44.25
2019-05-25T00:33:17.223Z,45.07
2019-05-25T00:34:17.217Z,44.54
2019-05-25T00:35:17.211Z,44.45
2019-05-25T00:36:17.205Z,44.75
2019-05-25T00:37:17.247Z,44.54
2019-05-25T00:38:17.197Z,44.57
2019-05-25T00:39:17.186Z,44.57
2019-05-25T00:40:17.176Z,44.35
2019-05-25T00:41:17.176Z,44.25
2019-05-25T00:42:17.167Z,44.67
2019-05-25T00:43:17.159Z,44.95
2019-05-25T00:44:17.149Z,44.45
2019-05-25T00:45:17.145Z,44.54
2019-05-25T00:46:17.138Z,44.54
2019-05-25T00:47:17.133Z,44.57
2019-05-25T00:48:17.127Z,44.54
2019-05-25T00:49:17.119Z,44.65
2019-05-25T00:50:17.115Z,44.65
2019-05-25T00:51:17.112Z,44.27
2019-05-25T00:52:17.115Z,44.25
2019-05-25T00:53:17.099Z,44.27
2019-05-25T00:54:27.416Z,44.95
2019-05-25T00:55:44.872Z,44.97
2019-05-25T00:56:44.870Z,44.35
2019-05-25T00:57:44.861Z,44.65
2019-05-25T00:58:44.852Z,44.25
2019-05-25T00:59:44.847Z,44.67
2019-05-25T01:00:44.842Z,44.27
2019-05-25T01:01:44.839Z,44.54
2019-05-25T01:02:44.896Z,44.45
2019-05-25T01:03:44.818Z,44.25
2019-05-25T01:04:44.813Z,44.25
2019-05-25T01:05:44.804Z,44.97
2019-05-25T01:06:44.800Z,44.95
2019-05-25T01:07:44.794Z,44.97
2019-05-25T01:08:44.787Z,44.67
2019-05-25T01:09:44.781Z,44.65
2019-05-25T01:10:44.774Z,44.35
2019-05-25T01:11:44.770Z,44.35
2019-05-25T01:12:44.767Z,44.75
2019-05-25T01:13:44.761Z,44.57
2019-05-25T01:14:44.761Z,44.47
2019-05-25T01:15:44.753Z,44.25
2019-05-25T01:16:44.810Z,44.95
2019-05-25T01:17:44.743Z,44.95
2019-05-25T01:18:44.734Z,44.95
2019-05-25T01:19:44.727Z,44.95
2019-05-25T01:20:44.720Z,44.54
2019-05-25T01:21:44.712Z,44.95
2019-05-25T01:22:44.708Z,44.75
2019-05-25T01:23:44.697Z,44.87
2019-05-25T01:24:45.102Z,44.45
2019-05-25T01:25:44.684Z,44.65
2019-05-25T01:26:44.716Z,44.75
2019-05-25T01:27:44.672Z,44.75
2019-05-25T01:28:44.663Z,44.67
2019-05-25T01:29:44.662Z,44.75
2019-05-25T01:30:44.701Z,44.65
2019-05-25T01:31:44.645Z,44.65
2019-05-25T01:32:44.639Z,44.35
2019-05-25T01:33:44.633Z,44.47
2019-05-25T01:34:44.626Z,44.65
2019-05-25T01:35:44.626Z,44.67
2019-05-25T01:36:44.613Z,44.95
2019-05-25T01:37:48.259Z,44.75
2019-05-25T01:38:44.598Z,44.27
2019-05-25T01:39:44.596Z,44.65
2019-05-25T01:40:44.586Z,44.95
2019-05-25T01:41:44.582Z,44.65
2019-05-25T01:42:44.623Z,44.95
2019-05-25T01:43:44.565Z,44.65
2019-05-25T01:44:44.560Z,44.95
2019-05-25T01:45:44.554Z,44.65
2019-05-25T01:46:44.544Z,44.95
2019-05-25T01:47:44.548Z,44.65
2019-05-25T01:48:44.532Z,44.75
2019-05-25T01:49:44.525Z,44.65
2019-05-25T01:50:44.519Z,44.87
2019-05-25T01:51:44.512Z,44.97
2019-05-25T01:52:44.503Z,44.97
2019-05-25T01:53:44.497Z,44.57
2019-05-25T01:54:58.963Z,44.87
2019-05-25T01:56:12.209Z,44.95
2019-05-25T01:57:12.204Z,44.57
2019-05-25T01:58:12.195Z,44.87
2019-05-25T01:59:12.191Z,44.97
2019-05-25T02:00:12.186Z,44.54
2019-05-25T02:01:12.180Z,44.57
2019-05-25T02:02:12.176Z,44.67
2019-05-25T02:03:12.170Z,44.95
2019-05-25T02:04:12.189Z,44.65
2019-05-25T02:05:12.158Z,44.54
2019-05-25T02:06:12.149Z,44.25
2019-05-25T02:07:12.144Z,44.65
2019-05-25T02:08:12.135Z,44.65
2019-05-25T02:09:12.129Z,44.95
2019-05-25T02:10:12.121Z,44.45
2019-05-25T02:11:12.114Z,44.54
2019-05-25T02:12:12.111Z,44.97
2019-05-25T02:13:12.100Z,44.27
2019-05-25T02:14:12.095Z,44.67
2019-05-25T02:15:12.090Z,44.97
2019-05-25T02:16:12.080Z,44.54
2019-05-25T02:17:12.074Z,44.25
2019-05-25T02:18:12.120Z,44.45
2019-05-25T02:19:12.063Z,44.97
2019-05-25T02:20:12.059Z,44.57
2019-05-25T02:21:12.051Z,44.77
2019-05-25T02:22:12.059Z,44.25
2019-05-25T02:23:12.040Z,44.57
2019-05-25T02:24:12.034Z,44.54
2019-05-25T02:25:18.038Z,44.45
2019-05-25T02:26:14.020Z,44.54
2019-05-25T02:27:12.015Z,44.45
2019-05-25T02:28:12.008Z,44.45
2019-05-25T02:29:12.005Z,44.45
2019-05-25T02:30:12.072Z,44.77
2019-05-25T02:31:12.010Z,44.47
2019-05-25T02:32:12.005Z,44.67
2019-05-25T02:33:11.997Z,44.75
2019-05-25T02:34:11.989Z,44.27
2019-05-25T02:35:11.982Z,44.37
2019-05-25T02:36:12.024Z,44.17
2019-05-25T02:37:11.969Z,44.67
2019-05-25T02:38:11.985Z,44.57
2019-05-25T02:39:11.979Z,44.15
2019-05-25T02:40:11.975Z,44.17
2019-05-25T02:41:11.966Z,44.37
2019-05-25T02:42:11.962Z,44.77
2019-05-25T02:43:11.955Z,44.57
2019-05-25T02:44:11.948Z,44.17
2019-05-25T02:45:11.941Z,44.27
2019-05-25T02:46:11.936Z,44.47
2019-05-25T02:47:11.930Z,44.25
2019-05-25T02:48:11.925Z,44.87
2019-05-25T02:49:11.916Z,44.27
2019-05-25T02:50:11.909Z,44.47
2019-05-25T02:51:11.909Z,44.57
2019-05-25T02:52:11.904Z,44.87
2019-05-25T02:53:11.891Z,44.77
2019-05-25T02:54:11.887Z,44.67
2019-05-25T02:55:11.875Z,44.27
2019-05-25T02:56:11.873Z,44.87
2019-05-25T02:57:11.863Z,44.87
2019-05-25T02:58:11.859Z,44.45
2019-05-25T02:59:11.854Z,44.17
2019-05-25T03:00:11.902Z,44.17
2019-05-25T03:01:11.837Z,44.67
2019-05-25T03:02:11.833Z,44.67
2019-05-25T03:03:11.825Z,44.67
2019-05-25T03:04:11.817Z,44.97
2019-05-25T03:05:11.812Z,44.87
2019-05-25T03:06:12.081Z,44.17
2019-05-25T03:07:11.800Z,44.87
2019-05-25T03:08:11.793Z,44.67
2019-05-25T03:09:11.786Z,44.15
2019-05-25T03:10:11.791Z,44.47
2019-05-25T03:11:11.776Z,44.67
2019-05-25T03:12:11.768Z,44.57
2019-05-25T03:13:11.763Z,44.37
2019-05-25T03:14:11.759Z,44.57
2019-05-25T03:15:11.747Z,44.67
2019-05-25T03:16:11.741Z,44.25
2019-05-25T03:17:11.735Z,44.87
2019-05-25T03:18:11.728Z,44.37
2019-05-25T03:19:11.721Z,44.47
2019-05-25T03:20:11.715Z,44.27
2019-05-25T03:21:11.708Z,44.87
2019-05-25T03:22:11.702Z,44.77
2019-05-25T03:23:11.696Z,44.57
2019-05-25T03:24:11.690Z,44.77
2019-05-25T03:25:11.683Z,44.77
2019-05-25T03:26:11.672Z,44.87
2019-05-25T03:27:11.669Z,44.97
2019-05-25T03:28:11.659Z,44.67
2019-05-25T03:29:11.653Z,44.47
2019-05-25T03:30:11.665Z,44.67
2019-05-25T03:31:11.640Z,44.97
2019-05-25T03:32:11.639Z,44.37
2019-05-25T03:33:11.638Z,44.57
2019-05-25T03:34:11.624Z,44.37
2019-05-25T03:35:11.623Z,44.97
2019-05-25T03:36:11.610Z,44.57
2019-05-25T03:37:11.604Z,44.57
2019-05-25T03:38:11.615Z,44.57
2019-05-25T03:39:11.587Z,44.27
2019-05-25T03:40:11.582Z,44.57
2019-05-25T03:41:11.573Z,44.67
2019-05-25T03:42:11.569Z,44.17
2019-05-25T03:43:11.560Z,44.67
2019-05-25T03:44:11.554Z,44.57
2019-05-25T03:45:11.551Z,44.57
2019-05-25T03:46:11.547Z,44.67
2019-05-25T03:47:11.558Z,44.57
2019-05-25T03:48:11.547Z,44.57
2019-05-25T03:49:11.539Z,44.67
2019-05-25T03:50:11.535Z,44.67
2019-05-25T03:51:11.527Z,44.37
2019-05-25T03:52:11.565Z,44.67
2019-05-25T03:53:11.561Z,44.57
2019-05-25T03:54:11.531Z,44.37
2019-05-25T03:55:11.524Z,44.17
2019-05-25T03:56:11.518Z,44.77
2019-05-25T03:57:11.514Z,44.37
2019-05-25T03:58:11.508Z,44.57
2019-05-25T03:59:11.497Z,44.57
2019-05-25T04:00:11.491Z,44.67
2019-05-25T04:01:11.532Z,44.57
2019-05-25T04:02:11.496Z,44.67
2019-05-25T04:03:11.473Z,44.97
2019-05-25T04:04:11.470Z,44.67
2019-05-25T04:05:11.461Z,44.57
2019-05-25T04:06:11.456Z,44.67
2019-05-25T04:07:11.447Z,44.57
2019-05-25T04:08:11.443Z,44.67
2019-05-25T04:09:11.436Z,44.57
2019-05-25T04:10:11.433Z,44.67
2019-05-25T04:11:11.420Z,44.97
2019-05-25T04:12:11.418Z,44.97
2019-05-25T04:13:11.408Z,44.77
2019-05-25T04:14:11.399Z,44.77
2019-05-25T04:15:11.399Z,44.67
2019-05-25T04:16:11.389Z,44.77
2019-05-25T04:17:11.377Z,44.97
2019-05-25T04:18:11.373Z,44.97
2019-05-25T04:19:11.365Z,44.97
2019-05-25T04:20:11.361Z,44.87
2019-05-25T04:21:11.364Z,44.77
2019-05-25T04:22:11.346Z,44.67
2019-05-25T04:23:11.342Z,44.57
2019-05-25T04:24:11.333Z,44.67
2019-05-25T04:25:11.340Z,44.27
2019-05-25T04:26:22.118Z,44.57
2019-05-25T04:27:39.093Z,45.07
2019-05-25T04:28:39.146Z,44.67
2019-05-25T04:29:39.080Z,44.17
2019-05-25T04:30:39.084Z,44.77
2019-05-25T04:31:39.064Z,44.47
2019-05-25T04:32:39.061Z,44.77
2019-05-25T04:33:39.051Z,44.67
2019-05-25T04:34:39.044Z,44.67
2019-05-25T04:35:39.037Z,44.45
2019-05-25T04:36:39.032Z,44.67
2019-05-25T04:37:39.026Z,44.27
2019-05-25T04:38:39.065Z,44.27
2019-05-25T04:39:39.012Z,44.97
2019-05-25T04:40:39.008Z,44.95
2019-05-25T04:41:39.001Z,44.67
2019-05-25T04:42:38.995Z,44.45
2019-05-25T04:43:38.988Z,44.84
2019-05-25T04:44:38.982Z,44.84
2019-05-25T04:45:38.988Z,44.65
2019-05-25T04:46:38.971Z,45.14
2019-05-25T04:47:39.020Z,44.35
2019-05-25T04:48:38.958Z,44.45
2019-05-25T04:49:38.952Z,44.35
2019-05-25T04:50:38.942Z,44.45
2019-05-25T04:51:38.935Z,44.25
2019-05-25T04:52:41.440Z,44.12
2019-05-25T04:53:38.993Z,44.12
2019-05-25T04:54:38.936Z,43.32
2019-05-25T04:55:38.929Z,43.63
2019-05-25T04:56:40.204Z,43.63
2019-05-25T04:57:38.912Z,43.60
2019-05-25T04:58:38.907Z,43.63
2019-05-25T04:59:38.955Z,43.53
2019-05-25T05:00:38.903Z,43.32
2019-05-25T05:01:38.888Z,43.32
2019-05-25T05:02:38.881Z,43.60
2019-05-25T05:03:38.873Z,43.09
2019-05-25T05:04:38.866Z,42.88
2019-05-25T05:05:38.861Z,43.18
2019-05-25T05:06:38.857Z,42.88
2019-05-25T05:07:38.848Z,42.29
2019-05-25T05:08:38.840Z,42.19
2019-05-25T05:09:38.840Z,43.09
2019-05-25T05:10:38.828Z,43.18
2019-05-25T05:11:38.826Z,43.18
2019-05-25T05:12:38.819Z,43.18
2019-05-25T05:13:38.810Z,42.79
2019-05-25T05:14:38.802Z,43.09
2019-05-25T05:15:38.797Z,43.09
2019-05-25T05:16:38.791Z,43.21
2019-05-25T05:17:38.838Z,43.51
2019-05-25T05:18:38.780Z,43.60
2019-05-25T05:19:38.778Z,43.51
2019-05-25T05:20:38.766Z,43.90
2019-05-25T05:21:38.785Z,43.81
2019-05-25T05:22:38.750Z,43.90
2019-05-25T05:23:38.770Z,43.90
2019-05-25T05:24:38.763Z,43.90
2019-05-25T05:25:38.756Z,43.90
2019-05-25T05:26:52.810Z,43.40
2019-05-25T05:28:06.486Z,43.51
2019-05-25T05:29:06.538Z,43.51
2019-05-25T05:30:06.476Z,43.70
2019-05-25T05:31:20.977Z,43.70
2019-05-25T05:32:33.689Z,43.90
2019-05-25T05:33:33.691Z,43.60
2019-05-25T05:34:33.681Z,43.60
2019-05-25T05:35:33.673Z,43.70
2019-05-25T05:36:33.667Z,43.81
2019-05-25T05:37:33.659Z,43.90
2019-05-25T05:38:33.650Z,43.90
2019-05-25T05:39:33.646Z,43.60
2019-05-25T05:40:33.639Z,43.60
2019-05-25T05:41:33.633Z,43.90
2019-05-25T05:42:33.625Z,43.60
2019-05-25T05:43:33.616Z,43.60
2019-05-25T05:44:33.608Z,43.60
2019-05-25T05:45:33.601Z,44.01
2019-05-25T05:46:33.644Z,43.60
2019-05-25T05:47:33.586Z,43.90
2019-05-25T05:48:33.618Z,43.70
2019-05-25T05:49:33.575Z,43.81
2019-05-25T05:50:33.564Z,43.90
2019-05-25T05:51:33.559Z,43.81
2019-05-25T05:52:33.603Z,43.10
2019-05-25T05:53:33.545Z,43.81
2019-05-25T05:54:33.540Z,43.90
2019-05-25T05:55:33.534Z,43.10
2019-05-25T05:56:33.532Z,43.29
2019-05-25T05:57:33.520Z,42.79
2019-05-25T05:58:33.514Z,43.18
2019-05-25T05:59:33.506Z,42.99
2019-05-25T06:00:33.500Z,42.09
2019-05-25T06:01:33.509Z,42.77
2019-05-25T06:02:33.487Z,42.77
2019-05-25T06:03:33.479Z,41.95
2019-05-25T06:04:33.472Z,42.15
2019-05-25T06:05:33.469Z,41.05
2019-05-25T06:06:33.460Z,41.65
2019-05-25T06:07:33.478Z,41.75
2019-05-25T06:08:33.471Z,40.85
2019-05-25T06:09:33.468Z,41.43
2019-05-25T06:10:33.460Z,41.63
2019-05-25T06:11:33.453Z,40.74
2019-05-25T06:12:33.448Z,40.91
2019-05-25T06:13:33.439Z,40.91
2019-05-25T06:14:33.436Z,41.11
2019-05-25T06:15:33.429Z,41.01
2019-05-25T06:16:33.423Z,40.93
2019-05-25T06:17:33.426Z,41.21
2019-05-25T06:18:33.410Z,40.82
2019-05-25T06:19:33.404Z,40.71
2019-05-25T06:20:33.405Z,40.74
2019-05-25T06:21:33.439Z,40.74
2019-05-25T06:22:33.385Z,40.91
2019-05-25T06:23:33.379Z,41.01
2019-05-25T06:24:33.373Z,40.52
2019-05-25T06:25:33.366Z,40.22
2019-05-25T06:26:33.360Z,40.71
2019-05-25T06:27:33.353Z,40.69
2019-05-25T06:28:33.347Z,39.90
2019-05-25T06:29:33.340Z,40.60
2019-05-25T06:30:33.342Z,40.20
2019-05-25T06:31:33.330Z,40.00
2019-05-25T06:32:33.321Z,38.98
2019-05-25T06:33:33.318Z,39.66
2019-05-25T06:34:33.370Z,38.55
2019-05-25T06:35:33.304Z,38.63
2019-05-25T06:36:33.299Z,38.12
2019-05-25T06:37:33.290Z,38.12
2019-05-25T06:38:33.284Z,37.70
2019-05-25T06:39:33.276Z,36.89
2019-05-25T06:40:33.272Z,36.29
2019-05-25T06:41:33.266Z,36.97
2019-05-25T06:42:33.257Z,36.26
2019-05-25T06:43:33.249Z,36.14
2019-05-25T06:44:33.244Z,35.55
2019-05-25T06:45:33.240Z,35.46
2019-05-25T06:46:33.282Z,35.17
2019-05-25T06:47:33.225Z,36.26
2019-05-25T06:48:33.218Z,36.16
2019-05-25T06:49:33.235Z,36.46
2019-05-25T06:50:33.248Z,36.36
2019-05-25T06:51:33.241Z,36.56
2019-05-25T06:52:33.235Z,36.18
2019-05-25T06:53:33.227Z,36.26
2019-05-25T06:54:33.222Z,36.16
2019-05-25T06:55:33.214Z,36.46
2019-05-25T06:56:33.209Z,36.06
2019-05-25T06:57:42.552Z,35.27
2019-05-25T06:59:00.998Z,35.36
2019-05-25T07:00:00.996Z,35.35
2019-05-25T07:01:00.995Z,35.66
2019-05-25T07:02:00.985Z,35.94
2019-05-25T07:03:00.979Z,35.43
2019-05-25T07:04:00.973Z,34.94
2019-05-25T07:05:00.965Z,34.72
2019-05-25T07:06:00.960Z,34.82
2019-05-25T07:07:00.951Z,34.82
2019-05-25T07:08:00.946Z,34.82
2019-05-25T07:09:00.940Z,35.04
2019-05-25T07:10:00.982Z,34.84
2019-05-25T07:11:00.927Z,35.13
2019-05-25T07:12:00.918Z,35.13
2019-05-25T07:13:00.913Z,35.13
2019-05-25T07:14:00.912Z,35.02
2019-05-25T07:15:00.900Z,35.22
2019-05-25T07:16:00.894Z,35.41
2019-05-25T07:17:00.891Z,35.32
2019-05-25T07:18:00.883Z,35.32
2019-05-25T07:19:00.878Z,34.62
2019-05-25T07:20:00.873Z,34.62
2019-05-25T07:21:00.865Z,34.82
2019-05-25T07:22:00.861Z,34.31
2019-05-25T07:23:00.908Z,34.11
2019-05-25T07:24:00.847Z,33.80
2019-05-25T07:25:00.841Z,34.39
2019-05-25T07:26:00.842Z,34.19
2019-05-25T07:27:00.828Z,34.49
2019-05-25T07:28:00.822Z,34.29
2019-05-25T07:29:00.816Z,34.49
2019-05-25T07:30:00.809Z,34.19
2019-05-25T07:31:00.800Z,34.19
2019-05-25T07:32:00.793Z,33.89
2019-05-25T07:33:00.788Z,33.72
2019-05-25T07:34:00.835Z,33.91
2019-05-25T07:35:00.777Z,34.01
2019-05-25T07:36:00.775Z,34.00
2019-05-25T07:37:00.764Z,33.89
2019-05-25T07:38:00.756Z,34.39
2019-05-25T07:39:00.750Z,34.47
2019-05-25T07:40:00.741Z,33.98
2019-05-25T07:41:00.735Z,33.09
2019-05-25T07:42:00.801Z,33.68
2019-05-25T07:43:00.720Z,33.27
2019-05-25T07:44:00.717Z,32.96
2019-05-25T07:45:00.710Z,32.76
2019-05-25T07:46:00.703Z,32.37
2019-05-25T07:47:00.697Z,32.37
2019-05-25T07:48:00.691Z,32.76
2019-05-25T07:49:00.681Z,32.66
2019-05-25T07:50:00.679Z,32.78
2019-05-25T07:51:00.671Z,32.87
2019-05-25T07:52:02.823Z,33.45
2019-05-25T07:53:00.661Z,33.57
2019-05-25T07:54:00.649Z,33.45
2019-05-25T07:55:00.643Z,32.76
2019-05-25T07:56:00.636Z,32.96
2019-05-25T07:57:00.631Z,32.66
2019-05-25T07:58:15.836Z,32.76
2019-05-25T07:59:28.345Z,32.37
2019-05-25T08:00:28.340Z,32.86
2019-05-25T08:01:28.335Z,32.55
2019-05-25T08:02:28.327Z,32.94
2019-05-25T08:03:28.322Z,32.55
2019-05-25T08:04:28.317Z,32.34
2019-05-25T08:05:28.312Z,32.34
2019-05-25T08:06:28.304Z,32.63
2019-05-25T08:07:56.084Z,31.84
2019-05-25T08:08:56.121Z,31.82
2019-05-25T08:09:56.012Z,31.63
2019-05-25T08:10:56.007Z,31.73
2019-05-25T08:11:56.008Z,31.34
2019-05-25T08:12:55.998Z,31.52
2019-05-25T08:13:55.988Z,31.10
2019-05-25T08:14:55.982Z,31.60
2019-05-25T08:15:55.974Z,30.31
2019-05-25T08:16:55.969Z,30.32
2019-05-25T08:17:55.960Z,30.40
2019-05-25T08:18:55.958Z,30.49
2019-05-25T08:19:55.966Z,30.37
2019-05-25T08:20:55.942Z,30.18
2019-05-25T08:21:55.940Z,29.87
2019-05-25T08:22:55.928Z,29.77
2019-05-25T08:23:55.921Z,29.76
2019-05-25T08:24:55.916Z,29.07
2019-05-25T08:25:55.911Z,29.44
2019-05-25T08:26:55.906Z,28.36
2019-05-25T08:27:55.900Z,29.14
2019-05-25T08:28:55.899Z,28.54
2019-05-25T08:29:55.893Z,28.44
2019-05-25T08:30:55.888Z,28.13
2019-05-25T08:31:55.925Z,28.02
2019-05-25T08:32:55.920Z,27.61
2019-05-25T08:33:55.864Z,27.99
2019-05-25T08:34:55.858Z,27.39
2019-05-25T08:35:55.849Z,26.61
2019-05-25T08:36:55.847Z,26.79
2019-05-25T08:37:55.842Z,26.20
2019-05-25T08:38:55.882Z,26.40
2019-05-25T08:39:55.827Z,26.00
2019-05-25T08:40:55.822Z,26.08
2019-05-25T08:41:55.815Z,26.08
2019-05-25T08:42:55.808Z,25.48
2019-05-25T08:43:55.801Z,25.68
2019-05-25T08:44:55.796Z,25.95
2019-05-25T08:45:55.790Z,24.49
2019-05-25T08:46:55.810Z,25.36
2019-05-25T08:47:57.163Z,24.87
2019-05-25T08:48:55.770Z,25.34
2019-05-25T08:49:55.768Z,24.96
2019-05-25T08:50:59.375Z,23.98
2019-05-25T08:51:55.756Z,24.95
2019-05-25T08:52:55.749Z,23.96
2019-05-25T08:53:55.782Z,24.06
2019-05-25T08:54:56.727Z,23.96
2019-05-25T08:55:55.752Z,24.25
2019-05-25T08:56:55.871Z,23.85
2019-05-25T08:57:55.738Z,23.93
2019-05-25T08:58:55.837Z,23.64
2019-05-25T08:59:55.725Z,22.95
2019-05-25T09:00:55.716Z,23.63
2019-05-25T09:01:55.713Z,23.81
2019-05-25T09:02:55.713Z,23.33
2019-05-25T09:03:55.700Z,23.12
2019-05-25T09:04:55.695Z,23.62
2019-05-25T09:05:55.688Z,23.84
2019-05-25T09:06:55.680Z,24.43
2019-05-25T09:07:55.755Z,23.65
2019-05-25T09:08:55.721Z,24.25
2019-05-25T09:09:55.663Z,25.14
2019-05-25T09:10:55.658Z,24.48
2019-05-25T09:11:55.648Z,24.87
2019-05-25T09:12:55.646Z,25.06
2019-05-25T09:13:55.641Z,25.56
2019-05-25T09:14:55.637Z,25.48
2019-05-25T09:15:55.649Z,24.58
2019-05-25T09:16:55.624Z,24.29
2019-05-25T09:17:55.615Z,25.07
2019-05-25T09:18:55.612Z,25.58
2019-05-25T09:19:55.605Z,25.20
2019-05-25T09:20:55.608Z,25.37
2019-05-25T09:22:02.410Z,25.29
2019-05-25T09:23:23.326Z,25.10
2019-05-25T09:24:23.323Z,25.68
2019-05-25T09:25:23.317Z,24.86
2019-05-25T09:26:23.313Z,24.06
2019-05-25T09:27:23.308Z,23.54
2019-05-25T09:28:23.299Z,22.84
2019-05-25T09:29:23.296Z,23.62
2019-05-25T09:30:23.288Z,23.35
2019-05-25T09:31:23.283Z,23.95
2019-05-25T09:32:23.275Z,23.87
2019-05-25T09:33:23.275Z,24.89
2019-05-25T09:34:23.264Z,25.50
2019-05-25T09:35:23.260Z,26.30
2019-05-25T09:36:23.253Z,27.50
2019-05-25T09:37:23.253Z,27.61
2019-05-25T09:38:23.243Z,27.60
2019-05-25T09:39:23.234Z,26.07
2019-05-25T09:40:23.232Z,24.76
2019-05-25T09:41:23.222Z,24.75
2019-05-25T09:42:23.217Z,23.86
2019-05-25T09:43:23.212Z,23.63
2019-05-25T09:44:23.256Z,23.34
2019-05-25T09:45:23.198Z,23.22
2019-05-25T09:46:23.194Z,22.42
2019-05-25T09:47:23.188Z,22.32
2019-05-25T09:48:23.197Z,21.72
2019-05-25T09:49:23.182Z,22.59
2019-05-25T09:50:23.175Z,22.20
2019-05-25T09:51:23.169Z,21.51
2019-05-25T09:52:23.163Z,22.49
2019-05-25T09:53:23.163Z,22.15
2019-05-25T09:54:23.157Z,23.15
2019-05-25T09:55:23.153Z,24.45
2019-05-25T09:56:23.144Z,24.14
2019-05-25T09:57:23.139Z,23.33
2019-05-25T09:58:23.131Z,23.12
2019-05-25T09:59:23.128Z,22.53
2019-05-25T10:00:23.122Z,22.93
2019-05-25T10:01:23.117Z,23.63
2019-05-25T10:02:23.162Z,23.24
2019-05-25T10:03:23.100Z,23.32
2019-05-25T10:04:23.096Z,23.23
2019-05-25T10:05:23.123Z,23.22
2019-05-25T10:06:23.083Z,22.62
2019-05-25T10:07:23.081Z,22.50
2019-05-25T10:08:23.083Z,22.49
2019-05-25T10:09:23.076Z,21.90
2019-05-25T10:10:23.068Z,21.42
2019-05-25T10:11:23.062Z,21.79
2019-05-25T10:12:23.057Z,22.20
2019-05-25T10:13:23.054Z,22.49
2019-05-25T10:14:23.045Z,22.61
2019-05-25T10:15:23.040Z,22.53
2019-05-25T10:16:23.036Z,22.63
2019-05-25T10:17:23.032Z,23.53
2019-05-25T10:18:23.027Z,23.02
2019-05-25T10:19:23.021Z,22.83
2019-05-25T10:20:23.067Z,22.53
2019-05-25T10:21:23.013Z,23.23
2019-05-25T10:22:23.007Z,23.65
2019-05-25T10:23:23.001Z,23.76
2019-05-25T10:24:22.997Z,23.25
2019-05-25T10:25:22.990Z,23.62
2019-05-25T10:26:23.275Z,21.66
2019-05-25T10:27:22.977Z,22.25
2019-05-25T10:28:22.974Z,22.74
2019-05-25T10:29:36.120Z,23.22
2019-05-25T10:30:24.960Z,22.91
2019-05-25T10:31:22.958Z,22.22
2019-05-25T10:32:22.948Z,22.61
2019-05-25T10:33:22.945Z,21.93
2019-05-25T10:34:22.936Z,22.70
2019-05-25T10:35:22.932Z,22.60
2019-05-25T10:36:22.928Z,22.99
2019-05-25T10:37:22.924Z,22.90
2019-05-25T10:38:22.919Z,22.90
2019-05-25T10:39:22.914Z,22.32
2019-05-25T10:40:22.906Z,22.61
2019-05-25T10:41:22.898Z,22.61
2019-05-25T10:42:22.913Z,22.91
2019-05-25T10:43:22.909Z,22.53
2019-05-25T10:44:22.897Z,22.62
2019-05-25T10:45:22.903Z,22.53
2019-05-25T10:46:22.884Z,22.05
2019-05-25T10:47:22.888Z,23.02
2019-05-25T10:48:22.917Z,22.93
2019-05-25T10:49:22.870Z,22.94
2019-05-25T10:50:22.864Z,23.43
2019-05-25T10:51:22.902Z,23.04
2019-05-25T10:52:22.870Z,23.63
2019-05-25T10:53:22.865Z,23.43
2019-05-25T10:54:22.857Z,23.34
2019-05-25T10:55:22.852Z,23.64
2019-05-25T10:56:22.896Z,23.36
2019-05-25T10:57:22.852Z,24.53
2019-05-25T10:58:22.847Z,24.45
2019-05-25T10:59:22.840Z,23.77
2019-05-25T11:00:22.838Z,24.26
2019-05-25T11:01:22.827Z,24.76
2019-05-25T11:02:22.824Z,25.07
2019-05-25T11:03:22.815Z,25.48
2019-05-25T11:04:22.810Z,25.10
2019-05-25T11:05:22.802Z,26.29
2019-05-25T11:06:22.795Z,26.51
2019-05-25T11:07:22.790Z,27.60
2019-05-25T11:08:22.784Z,27.52
2019-05-25T11:09:22.792Z,27.33
2019-05-25T11:10:22.771Z,28.23
2019-05-25T11:11:22.767Z,28.24
2019-05-25T11:12:25.891Z,28.34
2019-05-25T11:13:22.753Z,28.64
2019-05-25T11:14:22.744Z,28.36
2019-05-25T11:15:22.742Z,29.25
2019-05-25T11:16:22.734Z,28.97
2019-05-25T11:17:22.728Z,29.66
2019-05-25T11:18:22.721Z,29.47
2019-05-25T11:19:24.356Z,30.07
2019-05-25T11:20:22.708Z,30.37
2019-05-25T11:21:22.700Z,29.98
2019-05-25T11:22:22.712Z,30.19
2019-05-25T11:23:22.688Z,30.49
2019-05-25T11:24:22.689Z,30.40
2019-05-25T11:25:22.680Z,30.31
2019-05-25T11:26:22.670Z,30.90
2019-05-25T11:27:22.664Z,30.52
2019-05-25T11:28:22.662Z,30.91
2019-05-25T11:29:22.650Z,31.01
2019-05-25T11:30:22.643Z,30.83
2019-05-25T11:31:22.639Z,30.63
2019-05-25T11:32:22.629Z,31.42
2019-05-25T11:33:22.627Z,31.52
2019-05-25T11:34:22.621Z,31.81
2019-05-25T11:35:22.613Z,31.42
2019-05-25T11:36:22.606Z,31.63
2019-05-25T11:37:22.601Z,31.63
2019-05-25T11:38:22.600Z,31.53
2019-05-25T11:39:22.588Z,31.93
2019-05-25T11:40:22.585Z,32.34
2019-05-25T11:41:22.579Z,32.83
2019-05-25T11:42:22.571Z,32.93
2019-05-25T11:43:22.566Z,32.83
2019-05-25T11:44:22.562Z,32.73
2019-05-25T11:45:22.555Z,32.55
2019-05-25T11:46:22.547Z,32.55
2019-05-25T11:47:22.545Z,32.35
2019-05-25T11:48:22.532Z,33.24
2019-05-25T11:49:23.121Z,32.94
2019-05-25T11:50:22.556Z,32.75
2019-05-25T11:51:22.514Z,33.04
2019-05-25T11:53:22.502Z,33.16
2019-05-25T11:54:22.493Z,33.16
2019-05-25T11:56:22.487Z,33.55
2019-05-25T11:57:22.477Z,33.65
2019-05-25T11:58:22.468Z,33.55
2019-05-25T11:59:22.465Z,33.27
2019-05-25T12:00:25.430Z,32.87
2019-05-25T12:01:22.460Z,34.26
2019-05-25T12:02:24.448Z,33.77
2019-05-25T12:03:22.441Z,34.38
2019-05-25T12:04:22.435Z,34.36
2019-05-25T12:05:22.426Z,34.28
2019-05-25T12:06:22.420Z,34.57
2019-05-25T12:07:22.412Z,34.08
2019-05-25T12:09:22.399Z,33.78
2019-05-25T12:10:22.394Z,34.57
2019-05-25T12:11:22.385Z,33.70
2019-05-25T12:12:22.381Z,34.08
2019-05-25T12:13:22.373Z,34.10
2019-05-25T12:14:22.366Z,34.19
2019-05-25T12:15:22.360Z,34.39
2019-05-25T12:16:50.131Z,34.88
2019-05-25T12:17:50.127Z,34.59
2019-05-25T12:18:50.119Z,34.79
2019-05-25T12:19:50.114Z,35.08
2019-05-25T12:20:50.107Z,34.69
2019-05-25T12:21:50.102Z,34.61
2019-05-25T12:22:50.383Z,34.90
2019-05-25T12:23:50.100Z,35.10
2019-05-25T12:24:50.085Z,35.10
2019-05-25T12:25:50.128Z,35.20
2019-05-25T12:26:50.069Z,35.20
2019-05-25T12:27:50.062Z,35.20
2019-05-25T12:28:50.055Z,34.90
2019-05-25T12:29:50.051Z,35.00
2019-05-25T12:30:50.047Z,35.51
2019-05-25T12:31:50.037Z,35.22
2019-05-25T12:32:50.031Z,35.41
2019-05-25T12:33:50.023Z,35.81
2019-05-25T12:34:50.019Z,35.91
2019-05-25T12:35:50.012Z,35.41
2019-05-25T12:36:50.006Z,35.41
2019-05-25T12:37:50.049Z,35.41
2019-05-25T12:38:49.995Z,35.81
2019-05-25T12:39:49.983Z,35.22
2019-05-25T12:40:53.675Z,36.02
2019-05-25T12:41:49.970Z,35.41
2019-05-25T12:42:49.971Z,35.61
2019-05-25T12:43:50.007Z,35.33
2019-05-25T12:44:49.995Z,35.53
2019-05-25T12:45:49.946Z,35.72
2019-05-25T12:46:49.942Z,35.33
2019-05-25T12:47:49.935Z,35.53
2019-05-25T12:48:49.933Z,35.53
2019-05-25T12:49:51.105Z,35.23
2019-05-25T12:50:49.918Z,35.63
2019-05-25T12:51:49.912Z,36.23
2019-05-25T12:52:50.011Z,35.43
2019-05-25T12:53:49.901Z,35.94
2019-05-25T12:54:49.892Z,36.44
2019-05-25T12:55:49.889Z,35.93
2019-05-25T12:56:49.879Z,36.44
2019-05-25T12:57:51.471Z,36.54
2019-05-25T12:58:50.355Z,36.04
2019-05-25T12:59:49.863Z,36.54